Terminal Aerodrome Forecast
Issued by NWS Central Illinois

Home | Current Version | Previous Version | Text Only | Print | Product List | Glossary On
Versions: 1 2 3 4 5 6 7 8 9 10 11 12 13 14 15 16 17 18 19 20
013
FTUS43 KILX 091730
TAFSPI
TAF
KSPI 091730Z 0918/1018 31014G22KT 6SM -SN BR OVC025
      TEMPO 0918/0920 3SM -SN BR
     FM092000 31014G22KT P6SM VCSH OVC025
     FM092300 31011KT P6SM BKN025=

USA.gov is the U.S. government's official web portal to all federal, state and local government web resources and services.